Flight Track Log - Related Links

Times and Time Zones

All times are in EDT time to prevent confusion due to time zone crossing. See the FLG3862 flight status page for this flight to view local times or setup timezone preferences in your user account.

Time Position Orientation Groundspeed Altitude Reporting Facility
EDT Latitude Longitude Course Direction KTS MPH feet Rate Location/Type
Tue 12:52:00 PM 44.3877 -73.6022 253° West  Level FlightAware Approximate
Tue 12:52:02 PM 44.4122 -73.3003 258° West 219 252 8,300  Level Boston Center
Tue 12:53:00 PM 44.3647 -73.7141 259° West  Level FlightAware Approximate
Tue 12:53:02 PM 44.3992 -73.3903 259° West 225 259 11,000  Level Boston Center
Tue 12:54:00 PM 44.3484 -73.8284 259° West  Level FlightAware Approximate
Tue 12:54:03 PM 44.3836 -73.4886 258° West 246 283 13,100  Level Boston Center
Tue 12:55:00 PM 44.3316 -73.9425 256° West  Level FlightAware Approximate
Tue 12:55:02 PM 44.3681 -73.5931 258° West 264 304 14,800  Level Boston Center
Tue 12:56:00 PM 44.3109 -74.0553 256° West  Level FlightAware Approximate
Tue 12:56:03 PM 44.3503 -73.7031 257° West 287 330 16,500  Level Boston Center
Tue 12:57:03 PM 44.3344 -73.8100 258° West 300 345 17,500 950 Climbing Boston Center
Tue 12:58:03 PM 44.3142 -73.9342 257° West 323 372 18,400 966 Climbing Boston Center
Tue 12:59:01 PM 44.2936 -74.0642 258° West 334 384 19,400 958 Climbing Boston Center
Tue 01:00:02 PM 44.2686 -74.2028 256° West 340 391 20,300 893 Climbing Boston Center
Tue 01:01:02 PM 44.2500 -74.3356 259° West 340 391 21,200 655 Climbing Boston Center
Tue 01:02:01 PM 44.2289 -74.4739 258° West 351 404 21,600 700 Climbing Boston Center
Tue 01:03:02 PM 44.2056 -74.6092 257° West 361 415 22,600 843 Climbing Boston Center
Tue 01:04:02 PM 44.1819 -74.7444 256° West 361 415 23,300 800 Climbing Boston Center
Tue 01:05:02 PM 44.1606 -74.8797 258° West 361 415 24,200 942 Climbing Boston Center
Tue 01:06:03 PM 44.1389 -75.0119 257° West 361 415 25,200 908 Climbing Boston Center
Tue 01:07:01 PM 44.1197 -75.1181 256° West 356 410 26,000 1,008 Climbing Boston Center
Tue 01:08:02 PM 44.0931 -75.2703 256° West 351 404 27,200 893 Climbing Boston Center
Tue 01:09:02 PM 44.0733 -75.3964 258° West 351 404 27,800 600 Climbing Boston Center
Tue 01:10:02 PM 44.0511 -75.5225 256° West 346 398 28,400 595 Climbing Boston Center
Tue 01:11:03 PM 44.0289 -75.6483 256° West 341 392 29,000 545 Climbing Boston Center
Tue 01:12:03 PM 44.0044 -75.7769 255° West 341 392 29,500 508 Climbing Boston Center
Tue 01:13:01 PM 43.9819 -75.9056 256° West 341 392 30,000 508 Climbing Boston Center
Tue 01:14:01 PM 43.9592 -76.0314 256° West 341 392 30,500 496 Climbing Boston Center
Tue 01:15:02 PM 43.9531 -76.1636 266° West 346 398 31,000 492 Climbing Boston Center
Tue 01:16:03 PM 43.9486 -76.2961 267° West 346 398 31,500 504 Climbing Boston Center
Tue 01:17:01 PM 43.9461 -76.4286 269° West 346 398 32,000 254 Climbing Boston Center
Tue 01:18:01 PM 43.9414 -76.5667 267° West 346 398 32,000  Level Boston Center
Tue 01:19:15 PM 43.9333 -76.7167 266° West 360 414 32,000  Level Toronto Center
Tue 01:20:15 PM 43.9167 -76.8500 260° West 370 426 32,000  Level Toronto Center
Tue 01:21:15 PM 43.9167 -77.0000 270° West 370 426 32,000  Level Toronto Center
Tue 01:22:15 PM 43.9000 -77.1333 260° West 370 426 32,000  Level Toronto Center
Tue 01:23:15 PM 43.9000 -77.2667 270° West 360 414 32,000  Level Toronto Center
Tue 01:24:15 PM 43.9000 -77.4167 270° West 360 414 32,000  Level Toronto Center
Tue 01:25:15 PM 43.9000 -77.5500 270° West 360 414 32,000  Level Toronto Center
Tue 01:26:15 PM 43.9000 -77.6833 270° West 360 414 32,000  Level Toronto Center
Tue 01:27:15 PM 43.8833 -77.8333 261° West 360 414 32,000  Level Toronto Center
Tue 01:29:15 PM 43.8667 -78.1000 265° West 350 403 32,000  Level Toronto Center
Tue 01:30:15 PM 43.8667 -78.2500 270° West 350 403 32,000  Level Toronto Center
Tue 01:31:15 PM 43.8500 -78.3667 259° West 350 403 32,000  Level Toronto Center
Tue 01:32:15 PM 43.8667 -78.5000 280° West 350 403 32,000  Level Toronto Center
Tue 01:33:15 PM 43.8667 -78.6333 270° West 350 403 32,000  Level Toronto Center
Tue 01:34:15 PM 43.8500 -78.7500 259° West 350 403 32,000  Level Toronto Center
Tue 01:35:15 PM 43.8167 -78.9000 253° West 340 391 32,000  Level Toronto Center
Tue 01:36:15 PM 43.7667 -79.0167 239° Southwest 350 403 32,000  Level Toronto Center
Tue 01:37:15 PM 43.7167 -79.1000 230° Southwest 350 403 32,000  Level Toronto Center
Tue 01:38:15 PM 43.6500 -79.2167 232° Southwest 350 403 32,000  Level Toronto Center
Tue 01:39:15 PM 43.5833 -79.3167 227° Southwest 350 403 32,000  Level Toronto Center
Tue 01:40:15 PM 43.5333 -79.4333 239° Southwest 350 403 32,000  Level Toronto Center
Tue 01:41:15 PM 43.4667 -79.5333 227° Southwest 350 403 32,000 -500 Level Toronto Center
Tue 01:42:15 PM 43.4000 -79.6500 232° Southwest 360 414 31,000 -1,250 Descending Toronto Center
Tue 01:43:15 PM 43.3500 -79.7500 236° Southwest 380 437 29,500 -1,450 Descending Toronto Center
Tue 01:44:15 PM 43.2833 -79.8667 232° Southwest 390 449 28,100 -850 Descending Toronto Center
Tue 01:45:15 PM 43.2167 -79.9833 232° Southwest 370 426 27,800 -950 Descending Toronto Center
Tue 01:46:15 PM 43.1500 -80.0833 228° Southwest 360 414 26,200 -1,550 Descending Toronto Center
Tue 01:47:15 PM 43.0833 -80.2000 232° Southwest 360 414 24,700 -1,500 Descending Toronto Center
Tue 01:48:15 PM 43.0333 -80.3000 236° Southwest 360 414 23,200 -1,350 Descending Toronto Center
Tue 01:49:15 PM 42.9667 -80.4000 228° Southwest 340 391 22,000 -600 Descending Toronto Center
Tue 01:50:15 PM 42.9167 -80.5000 236° Southwest 320 368 22,000  Level Toronto Center
Tue 01:51:15 PM 42.8708 -80.6144 241° Southwest 321 369 22,000  Level Cleveland Center
Tue 01:52:15 PM 42.8042 -80.6850 218° Southwest 316 364 22,000 -400 Level Cleveland Center
Tue 01:53:15 PM 42.7083 -80.6397 161° South 307 353 21,200 -1,200 Descending Cleveland Center
Tue 01:54:15 PM 42.6353 -80.6875 206° Southwest 295 339 19,600 -1,550 Descending Cleveland Center
Tue 01:55:15 PM 42.6247 -80.7750 261° West 236 272 18,100 -1,450 Descending Cleveland Center
Tue 01:56:15 PM 42.6744 -80.8656 307° West 233 268 16,700 -1,050 Descending Cleveland Center
Tue 01:57:15 PM 42.7056 -80.9419 299° West 245 282 16,000 -350 Descending Cleveland Center
Tue 01:58:15 PM 42.6947 -81.0408 262° West 259 298 16,000  Level Cleveland Center
Tue 01:59:15 PM 42.6839 -81.1425 262° West 265 305 16,000  Level Cleveland Center
Tue 02:00:15 PM 42.6814 -81.2442 268° West 265 305 16,000 -400 Level Cleveland Center
Tue 02:01:15 PM 42.6911 -81.3403 278° West 265 305 15,200 -1,000 Descending Cleveland Center
Tue 02:02:15 PM 42.6967 -81.4336 275° West 259 298 14,000 -600 Descending Cleveland Center
Tue 02:03:15 PM 42.6939 -81.5294 268° West 254 292 14,000  Level Cleveland Center
Tue 02:04:15 PM 42.6783 -81.6308 258° West 261 300 14,000  Level Cleveland Center
Tue 02:05:15 PM 42.6586 -81.7294 255° West 256 295 14,000  Level Cleveland Center
Tue 02:06:15 PM 42.6411 -81.8250 256° West 261 300 14,000  Level Cleveland Center
Tue 02:07:15 PM 42.6256 -81.9178 257° West 261 300 14,000  Level Cleveland Center
Tue 02:08:15 PM 42.6097 -82.0078 257° West 261 300 14,000  Level Cleveland Center
Tue 02:09:15 PM 42.5919 -82.1006 255° West 261 300 14,000  Level Cleveland Center
Tue 02:10:15 PM 42.5739 -82.1903 255° West 261 300 14,000  Level Cleveland Center
Tue 02:10:50 PM 42.5669 -82.2408 259° West 252 290 14,000 -100 Level Cleveland Center
Tue 02:11:15 PM 42.5561 -82.2828 251° West 261 300 13,900 -537 Descending Cleveland Center
Tue 02:11:57 PM 42.5467 -82.3503 259° West 256 295 13,400 -700 Descending Cleveland Center
Tue 02:12:15 PM 42.5400 -82.3783 252° West 261 300 13,200 -689 Descending Cleveland Center
Tue 02:12:58 PM 42.5286 -82.4456 257° West 257 296 12,700 -700 Descending Cleveland Center
Tue 02:13:15 PM 42.5219 -82.4706 250° West 261 300 12,500 -643 Descending Cleveland Center
Tue 02:13:54 PM 42.5125 -82.5322 258° West 259 298 12,100 -500 Descending Cleveland Center
Tue 02:14:15 PM 42.5014 -82.5631 244° Southwest 261 300 12,000 -1,000 Descending Cleveland Center
Tue 02:14:54 PM 42.4839 -82.6186 247° West 255 293 11,100 -1,400 Descending Cleveland Center
Tue 02:15:15 PM 42.4708 -82.6464 238° Southwest 261 300 10,600 -1,548 Descending Cleveland Center
Tue 02:15:56 PM 42.4531 -82.7050 248° West 239 275 9,500 -1,500 Descending Cleveland Center
Tue 02:16:15 PM 42.4444 -82.7300 245° Southwest 251 289 9,100 -590 Descending Cleveland Center
Tue 02:16:57 PM 42.4411 -82.7919 266° West 227 261 8,900 -500 Descending Cleveland Center
Tue 02:17:15 PM 42.4364 -82.8142 254° West 239 275 8,600 -1,475 Descending Cleveland Center
Tue 02:17:58 PM 42.4353 -82.8789 269° West 233 268 7,400 -1,600 Descending Cleveland Center
Tue 02:18:15 PM 42.4306 -82.9011 254° West 239 275 7,000 -312 Descending Cleveland Center
Tue 02:19:15 PM 42.4397 -82.9664 281° West 211 243 7,000 -736 Level Cleveland Center
Tue 02:20:01 PM 42.4428 -83.0114 275° West 163 188 5,700 -1,121 Descending Cleveland Center
Tue 02:21:02 PM 42.4353 -83.0758 261° West 168 193 5,000 -344 Descending Cleveland Center
Tue 02:22:03 PM 42.4194 -83.1286 248° West 156 180 5,000  Level Cleveland Center
Tue 02:23:04 PM 42.3911 -83.1808 234° Southwest 161 185 5,000 -310 Level Cleveland Center
Tue 02:23:59 PM 42.3653 -83.2219 230° Southwest 165 190 4,400 -931 Descending Cleveland Center
Tue 02:25:00 PM 42.3228 -83.2567 211° Southwest 178 205 3,200 -1,180 Descending Cleveland Center

Login

Don't have an account? Register now (free) for customized features, flight alerts, and more!